createdAt,value
2019-02-12T00:02:28.543Z,3.27
2019-02-12T00:04:57.357Z,3.93
2019-02-12T00:07:26.219Z,4.03
2019-02-12T00:09:55.167Z,4.13
2019-02-12T00:12:24.187Z,3.83
2019-02-12T00:14:53.159Z,3.87
2019-02-12T00:17:22.108Z,3.57
2019-02-12T00:19:50.958Z,3.40
2019-02-12T00:22:19.873Z,4.17
2019-02-12T00:24:48.872Z,4.83
2019-02-12T00:27:17.807Z,5.20
2019-02-12T00:29:46.697Z,3.83
2019-02-12T00:32:15.631Z,4.37
2019-02-12T00:34:44.600Z,3.90
2019-02-12T00:37:13.559Z,4.30
2019-02-12T00:39:42.472Z,4.50
2019-02-12T00:42:11.535Z,5.30
2019-02-12T00:44:40.501Z,5.00
2019-02-12T00:47:09.432Z,4.70
2019-02-12T00:49:38.439Z,4.57
2019-02-12T00:52:07.388Z,4.83
2019-02-12T00:54:36.378Z,5.80
2019-02-12T00:57:05.386Z,4.33
2019-02-12T00:59:34.384Z,5.57
2019-02-12T01:02:03.255Z,5.57
2019-02-12T01:04:32.075Z,5.13
2019-02-12T01:07:01.015Z,6.13
2019-02-12T01:09:29.924Z,6.63
2019-02-12T01:11:58.838Z,6.57
2019-02-12T01:14:27.775Z,7.27
2019-02-12T01:16:56.736Z,7.30
2019-02-12T01:19:25.646Z,6.43
2019-02-12T01:21:54.549Z,5.63
2019-02-12T01:24:23.439Z,6.53
2019-02-12T01:26:52.372Z,6.90
2019-02-12T01:29:21.291Z,7.80
2019-02-12T01:31:50.309Z,5.50
2019-02-12T01:34:19.279Z,5.80
2019-02-12T01:36:48.192Z,4.93
2019-02-12T01:39:17.020Z,6.03
2019-02-12T01:41:45.911Z,5.47
2019-02-12T01:44:14.827Z,6.03
2019-02-12T01:46:43.789Z,6.13
2019-02-12T01:49:12.700Z,6.33
2019-02-12T01:51:41.613Z,5.10
2019-02-12T01:54:10.593Z,6.87
2019-02-12T01:56:39.404Z,4.87
2019-02-12T01:59:08.283Z,6.20
2019-02-12T02:01:37.186Z,5.50
2019-02-12T02:04:06.160Z,5.97
2019-02-12T02:06:35.043Z,6.60
2019-02-12T02:09:05.339Z,7.17
2019-02-12T02:11:34.319Z,6.23
2019-02-12T02:14:03.269Z,6.10
2019-02-12T02:16:32.171Z,6.40
2019-02-12T02:19:01.000Z,6.83
2019-02-12T02:21:29.827Z,7.00
2019-02-12T02:23:58.783Z,6.10
2019-02-12T02:26:27.731Z,5.80
2019-02-12T02:28:56.603Z,5.77
2019-02-12T02:31:25.468Z,6.10
2019-02-12T02:33:54.407Z,6.27
2019-02-12T02:36:23.218Z,6.03
2019-02-12T02:38:52.049Z,7.07
2019-02-12T02:41:20.880Z,6.50
2019-02-12T02:43:49.795Z,6.87
2019-02-12T02:46:18.765Z,6.80
2019-02-12T02:48:47.797Z,7.03
2019-02-12T02:51:16.606Z,6.03
2019-02-12T02:53:45.455Z,6.67
2019-02-12T02:56:14.339Z,6.80
2019-02-12T02:58:43.163Z,6.37
2019-02-12T03:01:12.052Z,5.60
2019-02-12T03:03:40.955Z,5.60
2019-02-12T03:06:09.843Z,5.90
2019-02-12T03:08:38.820Z,6.00
2019-02-12T03:11:07.715Z,7.20
2019-02-12T03:13:36.523Z,7.40
2019-02-12T03:16:05.491Z,7.03
2019-02-12T03:18:34.392Z,5.77
2019-02-12T03:21:03.359Z,7.93
2019-02-12T03:23:32.179Z,6.93
2019-02-12T03:26:01.111Z,7.77
2019-02-12T03:28:30.045Z,6.97
2019-02-12T03:30:59.043Z,7.70
2019-02-12T03:33:27.960Z,6.87
2019-02-12T03:35:57.027Z,8.17
2019-02-12T03:38:25.931Z,8.40
2019-02-12T03:40:54.779Z,9.37
2019-02-12T03:43:23.779Z,8.60
2019-02-12T03:45:52.597Z,8.83
2019-02-12T03:48:21.503Z,9.37
2019-02-12T03:50:50.340Z,8.43
2019-02-12T03:53:19.183Z,8.33
2019-02-12T03:55:48.186Z,9.57
2019-02-12T03:58:17.161Z,11.07
2019-02-12T04:00:46.044Z,10.30
2019-02-12T04:03:15.163Z,9.57
2019-02-12T04:05:44.067Z,11.70
2019-02-12T04:08:12.930Z,11.20
2019-02-12T04:10:41.926Z,10.70
2019-02-12T04:13:10.813Z,9.43
2019-02-12T04:15:39.806Z,10.23
2019-02-12T04:18:08.798Z,10.47
2019-02-12T04:20:37.778Z,12.07
2019-02-12T04:23:06.604Z,12.40
2019-02-12T04:25:35.579Z,10.27
2019-02-12T04:28:04.475Z,9.87
2019-02-12T04:30:33.307Z,11.23
2019-02-12T04:33:02.365Z,9.65
2019-02-12T04:35:31.392Z,10.23
2019-02-12T04:38:00.356Z,10.87
2019-02-12T04:40:29.372Z,10.30
2019-02-12T04:42:58.364Z,10.20
2019-02-12T04:45:27.450Z,11.07
2019-02-12T04:47:56.400Z,11.57
2019-02-12T04:50:25.437Z,11.43
2019-02-12T04:52:54.668Z,10.60
2019-02-12T04:55:23.721Z,11.67
2019-02-12T04:57:52.660Z,10.97
2019-02-12T05:00:21.690Z,11.40
2019-02-12T05:02:50.705Z,11.73
2019-02-12T05:05:19.744Z,11.27
2019-02-12T05:07:48.796Z,11.93
2019-02-12T05:10:18.612Z,11.57
2019-02-12T05:12:47.563Z,12.63
2019-02-12T05:15:16.614Z,12.07
2019-02-12T05:17:45.646Z,12.90
2019-02-12T05:20:14.648Z,13.20
2019-02-12T05:22:44.051Z,14.50
2019-02-12T05:25:13.948Z,13.27
2019-02-12T05:27:42.906Z,15.17
2019-02-12T05:30:12.032Z,13.80
2019-02-12T05:32:40.911Z,12.83
2019-02-12T05:35:10.208Z,13.80
2019-02-12T05:37:39.180Z,14.03
2019-02-12T05:40:08.773Z,14.77
2019-02-12T05:42:37.737Z,15.17
2019-02-12T05:45:07.996Z,15.30
2019-02-12T05:47:36.969Z,14.93
2019-02-12T05:50:07.665Z,17.23
2019-02-12T05:52:36.591Z,17.03
2019-02-12T05:55:05.651Z,17.20
2019-02-12T05:57:34.641Z,15.90
2019-02-12T06:00:04.367Z,18.13
2019-02-12T06:02:33.361Z,18.00
2019-02-12T06:05:02.496Z,16.77
2019-02-12T06:07:31.373Z,16.10
2019-02-12T06:10:00.376Z,16.50
2019-02-12T06:12:29.453Z,15.77
2019-02-12T06:14:59.886Z,16.53
2019-02-12T06:17:28.939Z,16.00
2019-02-12T06:19:57.904Z,17.53
2019-02-12T06:22:27.073Z,17.73
2019-02-12T06:24:56.352Z,21.50
2019-02-12T06:27:25.267Z,22.30
2019-02-12T06:29:54.458Z,18.63
2019-02-12T06:32:23.422Z,17.33
2019-02-12T06:34:53.746Z,17.10
2019-02-12T06:37:22.780Z,17.83
2019-02-12T06:39:51.768Z,21.25
2019-02-12T06:42:20.729Z,17.17
2019-02-12T06:44:49.668Z,16.27
2019-02-12T06:47:18.515Z,15.07
2019-02-12T06:49:47.375Z,16.50
2019-02-12T06:52:16.252Z,16.13
2019-02-12T06:54:45.136Z,16.10
2019-02-12T06:57:14.061Z,17.93
2019-02-12T06:59:43.061Z,16.60
2019-02-12T07:02:47.733Z,17.13
2019-02-12T07:05:16.764Z,16.97
2019-02-12T07:08:29.770Z,16.57
2019-02-12T07:11:01.585Z,15.57
2019-02-12T07:13:39.034Z,17.27
2019-02-12T07:17:01.005Z,16.13
2019-02-12T07:20:05.705Z,15.70
2019-02-12T07:23:02.772Z,17.53
2019-02-12T07:26:18.969Z,15.90
2019-02-12T07:29:18.828Z,16.43
2019-02-12T07:32:41.053Z,17.17
2019-02-12T07:35:48.764Z,15.67
2019-02-12T07:38:37.726Z,17.03
2019-02-12T07:41:44.612Z,15.90
2019-02-12T07:45:00.768Z,14.90
2019-02-12T07:47:50.578Z,16.43
2019-02-12T07:50:33.633Z,15.00
2019-02-12T07:53:34.038Z,16.77
2019-02-12T07:56:44.248Z,17.87
2019-02-12T07:59:47.650Z,16.73
2019-02-12T08:02:24.828Z,15.53
2019-02-12T08:05:34.422Z,15.47
2019-02-12T08:08:44.029Z,14.47
2019-02-12T08:11:43.981Z,13.77
2019-02-12T08:14:55.945Z,14.33
2019-02-12T08:17:57.100Z,13.93
2019-02-12T08:20:46.056Z,14.17
2019-02-12T08:23:55.804Z,14.00
2019-02-12T08:26:48.759Z,15.07
2019-02-12T08:29:56.108Z,15.10
2019-02-12T08:33:12.204Z,12.70
2019-02-12T08:36:01.643Z,12.57
2019-02-12T08:39:01.935Z,12.53
2019-02-12T08:42:04.540Z,11.60
2019-02-12T08:45:22.696Z,13.23
2019-02-12T08:48:46.623Z,12.63
2019-02-12T08:51:52.599Z,13.20
2019-02-12T08:54:48.997Z,14.00
2019-02-12T08:58:01.171Z,11.87
2019-02-12T09:01:23.617Z,11.33
2019-02-12T09:04:51.878Z,11.67
2019-02-12T09:07:37.995Z,11.97
2019-02-12T09:10:46.800Z,11.60
2019-02-12T09:14:16.756Z,13.17
2019-02-12T09:17:13.882Z,14.40
2019-02-12T09:20:24.560Z,12.33
2019-02-12T09:23:24.420Z,12.03
2019-02-12T09:26:43.798Z,13.80
2019-02-12T09:29:39.400Z,12.73
2019-02-12T09:33:05.031Z,13.10
2019-02-12T09:35:52.005Z,12.97
2019-02-12T09:38:52.848Z,12.53
2019-02-12T09:41:36.647Z,13.53
2019-02-12T09:44:32.233Z,13.00
2019-02-12T09:47:46.469Z,13.97
2019-02-12T09:50:36.948Z,12.37
2019-02-12T09:53:24.548Z,13.97
2019-02-12T09:56:25.830Z,12.60
2019-02-12T09:59:21.720Z,11.23
2019-02-12T10:02:27.075Z,12.17
2019-02-12T10:05:42.999Z,12.43
2019-02-12T10:08:40.640Z,13.23
2019-02-12T10:11:40.551Z,14.43
2019-02-12T10:14:56.359Z,15.30
2019-02-12T10:17:45.725Z,16.53
2019-02-12T10:20:50.310Z,18.63
2019-02-12T10:23:51.206Z,16.60
2019-02-12T10:26:20.725Z,16.73
2019-02-12T10:29:26.755Z,15.17
2019-02-12T10:31:54.400Z,17.77
2019-02-12T10:34:23.445Z,18.10
2019-02-12T10:36:52.380Z,16.70
2019-02-12T10:39:21.448Z,16.47
2019-02-12T10:41:50.499Z,17.47
2019-02-12T10:44:20.379Z,17.47
2019-02-12T10:46:49.454Z,17.93
2019-02-12T10:49:18.494Z,20.03
2019-02-12T10:51:47.547Z,16.90
2019-02-12T10:54:16.617Z,18.77
2019-02-12T10:56:45.647Z,18.00
2019-02-12T10:59:14.639Z,16.80
2019-02-12T11:01:44.198Z,16.67
2019-02-12T11:04:15.474Z,17.47
2019-02-12T11:06:44.448Z,18.60
2019-02-12T11:09:13.415Z,15.43
2019-02-12T11:11:43.852Z,16.87
2019-02-12T11:14:12.906Z,16.30
2019-02-12T11:16:41.935Z,16.07
2019-02-12T11:19:10.991Z,13.60
2019-02-12T11:21:39.998Z,13.37
2019-02-12T11:24:09.081Z,15.23
2019-02-12T11:26:38.143Z,14.10
2019-02-12T11:29:07.257Z,12.87
2019-02-12T11:31:36.349Z,12.77
2019-02-12T11:34:05.489Z,13.80
2019-02-12T11:36:34.443Z,12.97
2019-02-12T11:39:04.471Z,11.77
2019-02-12T11:41:33.414Z,11.57
2019-02-12T11:44:02.478Z,11.30
2019-02-12T11:46:31.335Z,11.30
2019-02-12T11:49:00.407Z,11.03
2019-02-12T11:51:29.380Z,10.57
2019-02-12T11:53:58.394Z,10.13
2019-02-12T11:56:27.513Z,9.70
2019-02-12T11:58:56.612Z,10.67
2019-02-12T12:01:28.676Z,10.03
2019-02-12T12:03:57.747Z,10.00
2019-02-12T12:06:29.358Z,10.90
2019-02-12T12:08:58.340Z,10.97
2019-02-12T12:11:27.312Z,12.27
2019-02-12T12:13:56.349Z,12.47
2019-02-12T12:16:25.373Z,13.00
2019-02-12T12:18:54.319Z,12.20
2019-02-12T12:21:23.366Z,12.03
2019-02-12T12:23:54.877Z,11.40
2019-02-12T12:26:23.733Z,8.50
2019-02-12T12:28:53.099Z,8.33
2019-02-12T12:31:22.016Z,8.63
2019-02-12T12:33:51.017Z,6.70
2019-02-12T12:36:19.994Z,6.83
2019-02-12T12:38:48.921Z,6.83
2019-02-12T12:41:17.875Z,7.97
2019-02-12T12:43:46.916Z,7.63
2019-02-12T12:46:16.098Z,7.50
2019-02-12T12:48:45.105Z,7.47
2019-02-12T12:51:14.004Z,7.90
2019-02-12T12:53:43.060Z,7.47
2019-02-12T12:56:11.989Z,7.40
2019-02-12T12:58:40.949Z,6.73
2019-02-12T13:01:10.012Z,7.07
2019-02-12T13:03:38.952Z,7.30
2019-02-12T13:06:08.065Z,7.17
2019-02-12T13:08:37.054Z,7.43
2019-02-12T13:11:09.052Z,8.27
2019-02-12T13:13:38.438Z,6.83
2019-02-12T13:16:07.386Z,9.00
2019-02-12T13:18:55.412Z,10.53
2019-02-12T13:21:24.357Z,10.47
2019-02-12T13:23:53.274Z,9.40
2019-02-12T13:26:22.227Z,10.97
2019-02-12T13:28:51.052Z,11.10
2019-02-12T13:31:20.823Z,11.50
2019-02-12T13:33:50.128Z,11.83
2019-02-12T13:36:19.063Z,11.17
2019-02-12T13:38:47.967Z,11.83
2019-02-12T13:41:16.912Z,11.27
2019-02-12T13:43:45.808Z,10.50
2019-02-12T13:46:14.823Z,12.10
2019-02-12T13:48:43.727Z,10.70
2019-02-12T13:51:12.764Z,11.63
2019-02-12T13:53:43.404Z,10.53
2019-02-12T13:56:12.388Z,11.37
2019-02-12T13:58:41.495Z,12.37
2019-02-12T14:01:10.530Z,12.70
2019-02-12T14:03:39.529Z,12.27
2019-02-12T14:06:08.692Z,13.40
2019-02-12T14:08:37.727Z,11.73
2019-02-12T14:11:09.775Z,12.93
2019-02-12T14:13:38.706Z,10.60
2019-02-12T14:16:07.633Z,11.20
2019-02-12T14:18:36.639Z,11.80
2019-02-12T14:21:05.651Z,11.53
2019-02-12T14:23:34.683Z,11.80
2019-02-12T14:26:03.603Z,10.80
2019-02-12T14:28:35.319Z,11.63
2019-02-12T14:31:04.316Z,12.10
2019-02-12T14:33:33.316Z,11.90
2019-02-12T14:36:02.240Z,12.37
2019-02-12T14:38:31.167Z,11.93
2019-02-12T14:41:00.115Z,12.17
2019-02-12T14:43:29.067Z,11.67
2019-02-12T14:45:58.052Z,13.53
2019-02-12T14:48:27.031Z,11.93
2019-02-12T14:50:56.031Z,12.77
2019-02-12T14:53:25.027Z,12.50
2019-02-12T14:55:53.982Z,11.63
2019-02-12T14:58:22.839Z,12.37
2019-02-12T15:00:51.759Z,12.30
2019-02-12T15:03:20.716Z,12.63
2019-02-12T15:05:51.199Z,11.70
2019-02-12T15:08:20.066Z,12.03
2019-02-12T15:10:48.967Z,11.37
2019-02-12T15:13:17.979Z,11.47
2019-02-12T15:15:46.897Z,10.90
2019-02-12T15:18:20.337Z,10.53
2019-02-12T15:20:49.256Z,11.63
2019-02-12T15:23:18.239Z,11.77
2019-02-12T15:25:47.232Z,12.37
2019-02-12T15:28:16.922Z,12.03
2019-02-12T15:30:46.002Z,11.93
2019-02-12T15:33:16.186Z,12.27
2019-02-12T15:35:45.233Z,10.57
2019-02-12T15:38:14.328Z,11.83
2019-02-12T15:40:44.952Z,10.50
2019-02-12T15:43:14.007Z,11.80
2019-02-12T15:45:42.952Z,11.90
2019-02-12T15:48:11.951Z,10.60
2019-02-12T15:50:41.031Z,10.57
2019-02-12T15:53:09.871Z,11.70
2019-02-12T15:55:42.266Z,10.83
2019-02-12T15:58:12.443Z,10.80
2019-02-12T16:00:43.461Z,11.53
2019-02-12T16:03:12.503Z,11.00
2019-02-12T16:05:41.544Z,12.20
2019-02-12T16:08:10.503Z,12.37
2019-02-12T16:10:40.184Z,11.73
2019-02-12T16:13:13.567Z,13.00
2019-02-12T16:15:44.663Z,12.77
2019-02-12T16:18:13.097Z,12.27
2019-02-12T16:20:41.995Z,13.27
2019-02-12T16:23:10.933Z,11.53
2019-02-12T16:25:39.964Z,13.00
2019-02-12T16:28:08.820Z,13.17
2019-02-12T16:30:38.039Z,13.33
2019-02-12T16:33:07.043Z,13.60
2019-02-12T16:35:35.936Z,14.07
2019-02-12T16:38:04.968Z,12.20
2019-02-12T16:40:35.069Z,11.83
2019-02-12T16:43:03.967Z,12.63
2019-02-12T16:45:43.368Z,11.70
2019-02-12T16:48:14.143Z,12.50
2019-02-12T16:50:43.131Z,12.80
2019-02-12T16:53:11.989Z,12.77
2019-02-12T16:55:40.896Z,13.20
2019-02-12T16:58:09.890Z,12.63
2019-02-12T17:00:38.784Z,12.20
2019-02-12T17:03:07.876Z,12.73
2019-02-12T17:05:36.783Z,13.57
2019-02-12T17:08:08.752Z,12.73
2019-02-12T17:10:37.724Z,13.77
2019-02-12T17:13:06.644Z,12.93
2019-02-12T17:15:35.545Z,14.47
2019-02-12T17:18:05.091Z,14.10
2019-02-12T17:20:34.085Z,12.87
2019-02-12T17:23:03.063Z,14.57
2019-02-12T17:25:32.004Z,15.10
2019-02-12T17:28:00.912Z,14.67
2019-02-12T17:30:29.933Z,16.23
2019-02-12T17:32:58.832Z,15.13
2019-02-12T17:35:27.744Z,15.20
2019-02-12T17:37:59.794Z,16.47
2019-02-12T17:40:28.623Z,15.00
2019-02-12T17:42:57.475Z,14.47
2019-02-12T17:45:27.531Z,14.00
2019-02-12T17:47:56.531Z,16.80
2019-02-12T17:50:25.552Z,16.25
2019-02-12T17:52:54.452Z,15.80
2019-02-12T17:55:23.384Z,15.93
2019-02-12T17:57:52.209Z,16.23
2019-02-12T18:00:24.057Z,15.33
2019-02-12T18:02:53.087Z,15.40
2019-02-12T18:05:22.150Z,15.57
2019-02-12T18:07:51.059Z,14.13
2019-02-12T18:10:19.896Z,14.80
2019-02-12T18:12:48.744Z,15.20
2019-02-12T18:15:17.719Z,15.77
2019-02-12T18:17:46.703Z,15.53
2019-02-12T18:20:15.972Z,15.73
2019-02-12T18:22:44.948Z,15.83
2019-02-12T18:25:15.563Z,16.73
2019-02-12T18:27:44.448Z,15.00
2019-02-12T18:30:14.424Z,16.47
2019-02-12T18:32:43.404Z,16.23
2019-02-12T18:35:12.316Z,21.17
2019-02-12T18:37:45.064Z,17.23
2019-02-12T18:40:14.068Z,18.07
2019-02-12T18:42:42.595Z,20.13
2019-02-12T18:45:12.419Z,17.13
2019-02-12T18:47:42.178Z,21.73
2019-02-12T18:50:11.076Z,17.33
2019-02-12T18:52:39.576Z,17.53
2019-02-12T18:55:08.520Z,17.90
2019-02-12T18:57:37.028Z,18.57
2019-02-12T19:00:06.111Z,16.60
2019-02-12T19:02:34.680Z,17.07
2019-02-12T19:05:03.327Z,39.90
2019-02-12T19:07:31.926Z,20.17
2019-02-12T19:10:00.431Z,17.90
2019-02-12T19:12:28.837Z,18.33
2019-02-12T19:14:57.408Z,21.23
2019-02-12T19:17:25.892Z,18.93
2019-02-12T19:19:54.466Z,21.83
2019-02-12T19:22:23.073Z,28.27
2019-02-12T19:24:51.528Z,28.17
2019-02-12T19:27:20.057Z,21.37
2019-02-12T19:29:48.599Z,19.80
2019-02-12T19:32:17.056Z,20.97
2019-02-12T19:34:46.756Z,25.77
2019-02-12T19:37:15.338Z,22.07
2019-02-12T19:39:43.807Z,20.03
2019-02-12T19:42:12.398Z,18.37
2019-02-12T19:44:43.628Z,19.93
2019-02-12T19:47:12.095Z,20.70
2019-02-12T19:49:40.560Z,22.23
2019-02-12T19:52:10.806Z,22.77
2019-02-12T19:54:39.300Z,23.10
2019-02-12T19:57:07.798Z,19.37
2019-02-12T19:59:36.287Z,23.10
2019-02-12T20:02:04.872Z,18.30
2019-02-12T20:04:33.407Z,23.20
2019-02-12T20:07:01.843Z,20.40
2019-02-12T20:09:30.272Z,19.23
2019-02-12T20:11:58.732Z,19.27
2019-02-12T20:14:27.251Z,19.83
2019-02-12T20:16:58.211Z,22.13
2019-02-12T20:19:27.196Z,18.73
2019-02-12T20:21:57.451Z,17.63
2019-02-12T20:24:26.135Z,18.83
2019-02-12T20:26:55.887Z,20.17
2019-02-12T20:29:24.367Z,19.43
2019-02-12T20:31:52.885Z,19.63
2019-02-12T20:34:28.645Z,18.63
2019-02-12T20:36:58.966Z,21.03
2019-02-12T20:39:30.167Z,22.47
2019-02-12T20:41:58.695Z,23.80
2019-02-12T20:44:27.219Z,25.37
2019-02-12T20:46:55.806Z,29.70
2019-02-12T20:49:24.252Z,29.47
2019-02-12T20:51:52.767Z,24.73
2019-02-12T20:54:21.287Z,23.70
2019-02-12T20:56:51.883Z,19.30
2019-02-12T20:59:22.499Z,19.57
2019-02-12T21:01:50.994Z,18.93
2019-02-12T21:04:19.659Z,19.60
2019-02-12T21:06:48.155Z,19.87
2019-02-12T21:09:18.385Z,19.40
2019-02-12T21:11:46.870Z,21.40
2019-02-12T21:14:15.311Z,21.50
2019-02-12T21:16:43.813Z,20.60
2019-02-12T21:19:12.420Z,22.97
2019-02-12T21:21:42.428Z,22.57
2019-02-12T21:24:10.961Z,22.27
2019-02-12T21:26:39.419Z,21.40
2019-02-12T21:29:16.828Z,21.73
2019-02-12T21:31:45.264Z,23.37
2019-02-12T21:34:13.689Z,23.20
2019-02-12T21:36:42.209Z,23.13
2019-02-12T21:39:11.548Z,21.67
2019-02-12T21:41:40.006Z,21.33
2019-02-12T21:44:08.438Z,24.67
2019-02-12T21:46:36.943Z,23.77
2019-02-12T21:49:05.448Z,24.37
2019-02-12T21:51:33.907Z,24.17
2019-02-12T21:54:02.410Z,22.70
2019-02-12T21:56:30.917Z,23.60
2019-02-12T21:58:59.482Z,24.80
2019-02-12T22:01:27.895Z,25.20
2019-02-12T22:03:56.388Z,24.47
2019-02-12T22:06:24.831Z,22.10
2019-02-12T22:08:53.244Z,27.63
2019-02-12T22:11:21.665Z,27.13
2019-02-12T22:13:50.101Z,23.83
2019-02-12T22:16:18.531Z,32.57
2019-02-12T22:18:48.497Z,25.67
2019-02-12T22:21:18.595Z,23.83
2019-02-12T22:23:47.088Z,23.27
2019-02-12T22:26:15.564Z,23.70
2019-02-12T22:28:43.997Z,23.33
2019-02-12T22:31:12.491Z,24.33
2019-02-12T22:33:40.916Z,24.67
2019-02-12T22:36:11.663Z,22.83
2019-02-12T22:38:46.795Z,24.40
2019-02-12T22:41:19.479Z,24.07
2019-02-12T22:43:47.915Z,26.27
2019-02-12T22:46:16.441Z,24.63
2019-02-12T22:48:44.863Z,21.87
2019-02-12T22:51:13.347Z,24.90
2019-02-12T22:53:41.899Z,24.00
2019-02-12T22:56:10.315Z,23.83
2019-02-12T22:58:47.713Z,23.30
2019-02-12T23:01:16.200Z,22.27
2019-02-12T23:03:44.687Z,23.47
2019-02-12T23:06:13.215Z,23.43
2019-02-12T23:08:44.688Z,24.47
2019-02-12T23:11:13.239Z,22.97
2019-02-12T23:13:41.723Z,23.80
2019-02-12T23:16:10.239Z,24.43
2019-02-12T23:18:38.663Z,24.60
2019-02-12T23:21:07.161Z,25.37
2019-02-12T23:23:35.651Z,23.90
2019-02-12T23:26:04.135Z,24.53
2019-02-12T23:28:34.647Z,24.53
2019-02-12T23:31:03.188Z,25.33
2019-02-12T23:33:31.692Z,25.03
2019-02-12T23:36:00.488Z,25.37
2019-02-12T23:38:28.876Z,24.93
2019-02-12T23:40:57.367Z,24.63
2019-02-12T23:43:25.850Z,25.03
2019-02-12T23:45:54.330Z,24.37
2019-02-12T23:48:22.767Z,25.83
2019-02-12T23:50:51.415Z,24.73
2019-02-12T23:53:20.159Z,24.73
2019-02-12T23:55:48.575Z,24.27
2019-02-12T23:58:16.995Z,25.70
